Time;durP1;ratioP1;P1;durP2;ratioP2;P2;SDS_P1;SDS_P2;PMS_P1;PMS_P2;Temp;Humidity;BMP_temperature;BMP_pressure;BME280_temperature;BME280_humidity;BME280_pressure;Samples;Min_cycle;Max_cycle;Signal;HPM_P1;HPM_P2
2023/09/08 00:00:56;;;;;;;6.85;2.42;;;;;;;;;;4948428;28;20026;-70
2023/09/08 00:03:22;;;;;;;7.18;2.50;;;;;;;;;;4941317;28;20073;-70
2023/09/08 00:05:48;;;;;;;7.28;2.50;;;;;;;;;;4949971;28;20592;-70
2023/09/08 00:08:15;;;;;;;9.13;2.55;;;;;;;;;;4941057;28;20031;-70
2023/09/08 00:10:41;;;;;;;8.68;2.70;;;;;;;;;;4944245;28;20027;-70
2023/09/08 00:13:07;;;;;;;7.80;2.50;;;;;;;;;;4946726;28;20065;-70
2023/09/08 00:15:37;;;;;;;8.07;2.65;;;;;;;;;;4946273;28;20339;-70
2023/09/08 00:18:03;;;;;;;8.02;2.97;;;;;;;;;;4949519;28;20112;-70
2023/09/08 00:20:29;;;;;;;8.25;2.47;;;;;;;;;;4944838;28;20141;-70
2023/09/08 00:22:55;;;;;;;10.02;3.35;;;;;;;;;;4951663;28;20096;-70
2023/09/08 00:25:21;;;;;;;9.32;2.80;;;;;;;;;;4949635;28;20065;-70
2023/09/08 00:27:47;;;;;;;7.88;2.83;;;;;;;;;;4948421;28;20041;-70
2023/09/08 00:30:14;;;;;;;7.55;2.47;;;;;;;;;;4948048;28;20045;-70
2023/09/08 00:32:40;;;;;;;6.90;2.50;;;;;;;;;;4949563;28;20362;-70
2023/09/08 00:35:08;;;;;;;8.63;2.70;;;;;;;;;;4941642;28;20043;-71
2023/09/08 00:37:34;;;;;;;9.23;2.85;;;;;;;;;;4942523;28;20564;-70
2023/09/08 00:40:00;;;;;;;8.00;2.42;;;;;;;;;;4945325;28;20066;-70
2023/09/08 00:42:26;;;;;;;7.85;2.53;;;;;;;;;;4940195;28;22688;-70
2023/09/08 00:44:52;;;;;;;8.60;2.80;;;;;;;;;;4945202;28;20535;-70
2023/09/08 00:47:18;;;;;;;7.70;2.65;;;;;;;;;;4949984;28;20043;-70
2023/09/08 00:49:46;;;;;;;9.00;2.70;;;;;;;;;;4944951;28;20679;-70
2023/09/08 00:52:12;;;;;;;10.90;3.00;;;;;;;;;;4946023;28;20125;-70
2023/09/08 00:54:38;;;;;;;8.68;2.95;;;;;;;;;;4941595;28;20497;-70
2023/09/08 00:57:04;;;;;;;8.30;2.97;;;;;;;;;;4942118;28;20505;-70
2023/09/08 00:59:32;;;;;;;8.25;2.60;;;;;;;;;;4939822;28;20026;-70
2023/09/08 01:01:59;;;;;;;8.70;2.50;;;;;;;;;;4946095;28;20035;-70
2023/09/08 01:04:25;;;;;;;9.77;2.47;;;;;;;;;;4944377;28;20031;-70
2023/09/08 01:06:51;;;;;;;7.47;2.63;;;;;;;;;;4943148;28;20291;-70
2023/09/08 01:09:18;;;;;;;8.68;2.33;;;;;;;;;;4944159;28;20271;-70
2023/09/08 01:11:44;;;;;;;8.73;2.60;;;;;;;;;;4944513;28;20220;-70
2023/09/08 01:14:13;;;;;;;8.13;2.53;;;;;;;;;;4941865;28;20467;-69
2023/09/08 01:16:42;;;;;;;8.80;2.75;;;;;;;;;;4944563;28;20027;-70
2023/09/08 01:19:12;;;;;;;7.18;2.42;;;;;;;;;;4942696;28;20061;-70
2023/09/08 01:21:59;;;;;;;7.78;2.65;;;;;;;;;;4945975;28;20022;-70
2023/09/08 01:24:28;;;;;;;6.75;2.30;;;;;;;;;;4943147;28;20081;-70
2023/09/08 01:26:54;;;;;;;9.15;2.88;;;;;;;;;;4943925;28;20065;-69
2023/09/08 01:29:23;;;;;;;7.32;2.50;;;;;;;;;;4943876;28;20022;-70
2023/09/08 01:31:50;;;;;;;10.57;2.85;;;;;;;;;;4940522;28;20031;-71
2023/09/08 01:34:16;;;;;;;10.23;2.80;;;;;;;;;;4943618;28;20124;-70
2023/09/08 01:36:42;;;;;;;9.82;3.17;;;;;;;;;;4943293;28;20063;-70
2023/09/08 01:39:08;;;;;;;8.25;2.60;;;;;;;;;;4945192;28;20030;-70
2023/09/08 01:41:35;;;;;;;8.20;2.72;;;;;;;;;;4889211;28;1657073;-70
2023/09/08 01:44:05;;;;;;;10.15;2.60;;;;;;;;;;4941482;28;20307;-69
2023/09/08 01:46:31;;;;;;;8.60;2.50;;;;;;;;;;4942416;28;20034;-70
2023/09/08 01:48:57;;;;;;;6.95;2.50;;;;;;;;;;4947401;28;20042;-70
2023/09/08 01:51:23;;;;;;;8.45;3.08;;;;;;;;;;4945299;28;20035;-70
2023/09/08 01:53:49;;;;;;;6.88;2.45;;;;;;;;;;4946135;28;20053;-70
2023/09/08 01:56:15;;;;;;;6.80;2.78;;;;;;;;;;4943979;28;20680;-70
2023/09/08 01:58:41;;;;;;;7.85;2.95;;;;;;;;;;4947092;28;20470;-70
2023/09/08 02:01:07;;;;;;;7.78;2.70;;;;;;;;;;4941949;28;20033;-69
2023/09/08 02:03:34;;;;;;;8.30;2.67;;;;;;;;;;4947541;28;20537;-70
2023/09/08 02:06:00;;;;;;;7.53;2.70;;;;;;;;;;4943774;28;20409;-69
2023/09/08 02:08:26;;;;;;;7.20;2.53;;;;;;;;;;4946348;28;20444;-69
2023/09/08 02:10:52;;;;;;;8.85;2.67;;;;;;;;;;4944759;28;20509;-71
2023/09/08 02:13:18;;;;;;;7.72;2.50;;;;;;;;;;4942133;28;20337;-70
2023/09/08 02:15:44;;;;;;;9.43;2.78;;;;;;;;;;4943971;28;20528;-70
2023/09/08 02:18:11;;;;;;;7.20;2.40;;;;;;;;;;4944571;28;20039;-70
2023/09/08 02:20:38;;;;;;;9.27;3.00;;;;;;;;;;4945096;28;20094;-70
2023/09/08 02:23:05;;;;;;;9.18;2.58;;;;;;;;;;4949510;28;20462;-70
2023/09/08 02:25:31;;;;;;;9.18;2.70;;;;;;;;;;4943725;28;20022;-70
2023/09/08 02:27:57;;;;;;;7.95;2.65;;;;;;;;;;4942662;28;20031;-70
2023/09/08 02:30:23;;;;;;;7.15;2.50;;;;;;;;;;4945909;28;20030;-70
2023/09/08 02:32:49;;;;;;;8.05;2.75;;;;;;;;;;4947303;28;20407;-70
2023/09/08 02:35:15;;;;;;;8.38;2.65;;;;;;;;;;4943052;28;20768;-70
2023/09/08 02:37:42;;;;;;;8.48;2.80;;;;;;;;;;4947384;28;20026;-70
2023/09/08 02:40:08;;;;;;;7.65;2.55;;;;;;;;;;4945768;28;20038;-70
2023/09/08 02:42:34;;;;;;;6.50;2.40;;;;;;;;;;4952071;28;20118;-70
2023/09/08 02:45:00;;;;;;;7.80;2.60;;;;;;;;;;4947027;28;20595;-70
2023/09/08 02:47:26;;;;;;;8.15;2.65;;;;;;;;;;4943777;28;20057;-70
2023/09/08 02:49:52;;;;;;;7.40;2.58;;;;;;;;;;4946012;28;20233;-70
2023/09/08 02:52:19;;;;;;;8.98;2.83;;;;;;;;;;4942752;28;20039;-70
2023/09/08 02:54:45;;;;;;;6.93;2.42;;;;;;;;;;4941278;28;20371;-70
2023/09/08 02:57:12;;;;;;;7.65;2.70;;;;;;;;;;4943867;28;20765;-70
2023/09/08 02:59:38;;;;;;;9.90;2.88;;;;;;;;;;4947350;28;20030;-70
2023/09/08 03:02:04;;;;;;;7.63;2.50;;;;;;;;;;4943922;28;20035;-70
2023/09/08 03:04:30;;;;;;;9.18;2.70;;;;;;;;;;4938107;28;20026;-70
2023/09/08 03:06:56;;;;;;;5.90;2.30;;;;;;;;;;4944372;28;20286;-70
2023/09/08 03:09:22;;;;;;;7.00;2.60;;;;;;;;;;4942278;28;20180;-70
2023/09/08 03:11:49;;;;;;;9.20;2.67;;;;;;;;;;4950243;28;20049;-70
2023/09/08 03:14:15;;;;;;;7.95;2.63;;;;;;;;;;4946418;28;20031;-70
2023/09/08 03:16:41;;;;;;;7.55;2.67;;;;;;;;;;4944938;28;20019;-69
2023/09/08 03:19:07;;;;;;;7.05;2.75;;;;;;;;;;4945713;28;20362;-69
2023/09/08 03:21:33;;;;;;;8.88;2.85;;;;;;;;;;4946788;28;20039;-70
2023/09/08 03:23:59;;;;;;;8.65;2.92;;;;;;;;;;4938956;28;20529;-69
2023/09/08 03:26:25;;;;;;;9.10;2.67;;;;;;;;;;4942285;28;20494;-69
2023/09/08 03:28:52;;;;;;;7.88;3.10;;;;;;;;;;4947190;28;20515;-71
2023/09/08 03:31:18;;;;;;;6.25;2.63;;;;;;;;;;4942264;28;20166;-69
2023/09/08 03:33:44;;;;;;;6.63;2.53;;;;;;;;;;4941682;28;20031;-69
2023/09/08 03:36:10;;;;;;;8.07;2.55;;;;;;;;;;4940675;28;20117;-69
2023/09/08 03:38:37;;;;;;;7.15;2.60;;;;;;;;;;4944816;28;20030;-69
2023/09/08 03:41:03;;;;;;;7.85;2.90;;;;;;;;;;4943708;28;20055;-69
2023/09/08 03:43:29;;;;;;;6.30;2.50;;;;;;;;;;4944158;28;20035;-69
2023/09/08 03:45:56;;;;;;;7.20;2.47;;;;;;;;;;4942387;28;20406;-69
2023/09/08 03:48:23;;;;;;;7.93;2.58;;;;;;;;;;4940681;28;20027;-69
2023/09/08 03:50:49;;;;;;;9.07;2.75;;;;;;;;;;4946191;28;20042;-69
2023/09/08 03:53:15;;;;;;;7.72;2.40;;;;;;;;;;4944134;28;20568;-69
2023/09/08 03:55:41;;;;;;;8.32;2.47;;;;;;;;;;4948598;28;20031;-70
2023/09/08 03:58:08;;;;;;;7.00;2.80;;;;;;;;;;4942801;28;20027;-70
2023/09/08 04:00:35;;;;;;;7.32;2.60;;;;;;;;;;4944643;28;20030;-70
2023/09/08 04:03:01;;;;;;;7.82;2.50;;;;;;;;;;4946772;28;20027;-70
2023/09/08 04:05:27;;;;;;;7.75;2.90;;;;;;;;;;4939969;28;20767;-70
2023/09/08 04:07:53;;;;;;;8.15;2.67;;;;;;;;;;4940170;28;20032;-71
2023/09/08 04:10:19;;;;;;;7.50;2.85;;;;;;;;;;4941592;28;20046;-70
2023/09/08 04:12:46;;;;;;;7.10;2.80;;;;;;;;;;4949849;28;20035;-70
2023/09/08 04:15:12;;;;;;;5.70;2.17;;;;;;;;;;4941936;28;20039;-69
2023/09/08 04:17:38;;;;;;;6.40;2.28;;;;;;;;;;4946936;28;20081;-70
2023/09/08 04:20:05;;;;;;;6.75;2.45;;;;;;;;;;4943220;28;20030;-70
2023/09/08 04:22:32;;;;;;;8.45;2.88;;;;;;;;;;4939577;28;20035;-70
2023/09/08 04:24:58;;;;;;;7.80;2.85;;;;;;;;;;4944800;28;20150;-70
2023/09/08 04:27:24;;;;;;;6.35;2.40;;;;;;;;;;4940982;28;20109;-70
2023/09/08 04:29:50;;;;;;;9.27;2.90;;;;;;;;;;4943291;28;20046;-69
2023/09/08 04:32:17;;;;;;;8.88;3.13;;;;;;;;;;4945016;28;20028;-70
2023/09/08 04:34:43;;;;;;;9.38;3.05;;;;;;;;;;4946172;28;20035;-70
2023/09/08 04:37:09;;;;;;;8.70;2.95;;;;;;;;;;4946126;28;20019;-70
2023/09/08 04:39:36;;;;;;;7.53;3.08;;;;;;;;;;4946060;28;20118;-69
2023/09/08 04:42:03;;;;;;;9.40;2.88;;;;;;;;;;4947268;28;20580;-70
2023/09/08 04:44:29;;;;;;;8.65;2.80;;;;;;;;;;4946767;28;20042;-69
2023/09/08 04:46:56;;;;;;;8.52;3.05;;;;;;;;;;4948380;28;20141;-70
2023/09/08 04:49:22;;;;;;;8.05;2.50;;;;;;;;;;4948765;28;20031;-70
2023/09/08 04:51:48;;;;;;;8.13;2.83;;;;;;;;;;4946608;28;20515;-70
2023/09/08 04:54:14;;;;;;;11.02;3.00;;;;;;;;;;4946433;28;20046;-70
2023/09/08 04:56:40;;;;;;;8.48;2.83;;;;;;;;;;4950851;28;20133;-69
2023/09/08 04:59:07;;;;;;;8.15;2.92;;;;;;;;;;4947851;28;20188;-70
2023/09/08 05:01:33;;;;;;;8.38;2.80;;;;;;;;;;4947324;28;20038;-70
2023/09/08 05:04:02;;;;;;;7.38;2.90;;;;;;;;;;4945091;28;20397;-69
2023/09/08 05:06:28;;;;;;;8.95;3.05;;;;;;;;;;4944842;28;20027;-70
2023/09/08 05:08:54;;;;;;;6.57;2.50;;;;;;;;;;4948546;28;20035;-70
2023/09/08 05:11:20;;;;;;;8.90;2.90;;;;;;;;;;4944107;28;20034;-70
2023/09/08 05:13:47;;;;;;;8.48;3.40;;;;;;;;;;4949547;28;20332;-70
2023/09/08 05:16:13;;;;;;;8.63;3.60;;;;;;;;;;4944446;28;20154;-70
2023/09/08 05:18:40;;;;;;;7.38;3.03;;;;;;;;;;4948270;28;20249;-70
2023/09/08 05:21:07;;;;;;;8.13;3.40;;;;;;;;;;4942775;28;20123;-70
2023/09/08 05:23:33;;;;;;;8.45;2.70;;;;;;;;;;4944955;28;20030;-70
2023/09/08 05:25:59;;;;;;;8.63;3.08;;;;;;;;;;4949932;28;20061;-70
2023/09/08 05:28:25;;;;;;;9.43;3.20;;;;;;;;;;4942541;28;20053;-70
2023/09/08 05:30:52;;;;;;;7.60;2.85;;;;;;;;;;4943597;28;20066;-70
2023/09/08 05:33:18;;;;;;;7.97;2.75;;;;;;;;;;4944990;28;20035;-70
2023/09/08 05:35:45;;;;;;;8.82;2.90;;;;;;;;;;4945077;28;20019;-71
2023/09/08 05:38:11;;;;;;;7.07;3.00;;;;;;;;;;4947747;28;20041;-70
2023/09/08 05:40:38;;;;;;;8.32;2.92;;;;;;;;;;4938368;28;20492;-70
2023/09/08 05:43:04;;;;;;;7.95;3.00;;;;;;;;;;4940779;28;20670;-70
2023/09/08 05:45:32;;;;;;;8.18;2.78;;;;;;;;;;4942356;28;20703;-71
2023/09/08 05:47:58;;;;;;;7.05;2.75;;;;;;;;;;4941363;28;20450;-70
2023/09/08 05:50:24;;;;;;;8.07;2.60;;;;;;;;;;4944008;28;20027;-70
2023/09/08 05:52:51;;;;;;;7.25;2.70;;;;;;;;;;4942196;28;20049;-70
2023/09/08 05:55:17;;;;;;;7.63;3.30;;;;;;;;;;4946799;28;20417;-69
2023/09/08 05:57:44;;;;;;;12.43;5.78;;;;;;;;;;4947044;28;20346;-70
2023/09/08 06:00:10;;;;;;;11.25;4.03;;;;;;;;;;4945248;28;20041;-70
2023/09/08 06:02:36;;;;;;;11.57;3.53;;;;;;;;;;4948873;28;20030;-70
2023/09/08 06:05:03;;;;;;;9.15;3.40;;;;;;;;;;4949598;28;20340;-69
2023/09/08 06:07:29;;;;;;;7.88;3.40;;;;;;;;;;4943656;28;20035;-70
2023/09/08 06:09:56;;;;;;;10.25;3.90;;;;;;;;;;4949285;28;20719;-70
2023/09/08 06:12:22;;;;;;;7.03;2.80;;;;;;;;;;4947896;28;20381;-70
2023/09/08 06:14:48;;;;;;;12.20;3.63;;;;;;;;;;4949739;28;20039;-70
2023/09/08 06:17:14;;;;;;;13.63;2.92;;;;;;;;;;4942850;28;20042;-70
2023/09/08 06:19:40;;;;;;;10.82;3.42;;;;;;;;;;4947616;28;20024;-70
2023/09/08 06:22:06;;;;;;;7.55;3.30;;;;;;;;;;4949270;28;20109;-70
2023/09/08 06:24:33;;;;;;;9.80;3.70;;;;;;;;;;4948436;28;20062;-70
2023/09/08 06:26:59;;;;;;;10.45;4.28;;;;;;;;;;4947203;28;20031;-70
2023/09/08 06:29:25;;;;;;;10.60;3.70;;;;;;;;;;4946403;28;20038;-72
2023/09/08 06:31:51;;;;;;;11.40;4.10;;;;;;;;;;4945777;28;20165;-69
2023/09/08 06:34:21;;;;;;;10.15;3.63;;;;;;;;;;4942131;28;20303;-69
2023/09/08 06:36:47;;;;;;;9.38;3.85;;;;;;;;;;4946158;28;20031;-72
2023/09/08 06:39:13;;;;;;;10.10;3.50;;;;;;;;;;4942980;28;20101;-69
2023/09/08 06:41:39;;;;;;;11.30;5.07;;;;;;;;;;4948046;28;20105;-69
2023/09/08 06:44:06;;;;;;;12.88;3.83;;;;;;;;;;4944384;28;20038;-69
2023/09/08 06:46:32;;;;;;;9.68;3.72;;;;;;;;;;4946678;28;20035;-72
2023/09/08 06:48:59;;;;;;;10.73;3.30;;;;;;;;;;4947661;28;20039;-70
2023/09/08 06:51:25;;;;;;;8.13;3.10;;;;;;;;;;4945981;28;20037;-69
2023/09/08 06:53:56;;;;;;;8.90;3.45;;;;;;;;;;4943641;28;20450;-69
2023/09/08 06:56:22;;;;;;;7.88;3.22;;;;;;;;;;4944760;28;20505;-72
2023/09/08 06:58:48;;;;;;;14.88;3.53;;;;;;;;;;4945867;28;20378;-69
2023/09/08 07:01:15;;;;;;;8.40;3.05;;;;;;;;;;4947373;28;20066;-69
2023/09/08 07:03:41;;;;;;;14.15;4.20;;;;;;;;;;4947034;28;20032;-69
2023/09/08 07:06:07;;;;;;;10.55;3.70;;;;;;;;;;4947899;28;20035;-72
2023/09/08 07:08:33;;;;;;;10.90;2.90;;;;;;;;;;4952507;28;20362;-70
2023/09/08 07:10:59;;;;;;;9.30;2.70;;;;;;;;;;4943606;28;20058;-69
2023/09/08 07:13:26;;;;;;;8.57;2.60;;;;;;;;;;4944884;28;20070;-72
2023/09/08 07:15:52;;;;;;;8.75;2.95;;;;;;;;;;4947457;28;20031;-71
2023/09/08 07:18:18;;;;;;;8.35;3.08;;;;;;;;;;4942514;28;20066;-70
2023/09/08 07:20:48;;;;;;;7.20;2.58;;;;;;;;;;4950231;28;20114;-70
2023/09/08 07:23:14;;;;;;;9.13;3.05;;;;;;;;;;4944673;28;20041;-70
2023/09/08 07:25:40;;;;;;;8.30;2.85;;;;;;;;;;4947103;28;20035;-70
2023/09/08 07:28:07;;;;;;;6.90;2.67;;;;;;;;;;4949329;28;20586;-70
2023/09/08 07:30:33;;;;;;;8.02;2.45;;;;;;;;;;4946657;28;20108;-70
2023/09/08 07:32:59;;;;;;;10.10;3.20;;;;;;;;;;4945780;28;20038;-70
2023/09/08 07:35:25;;;;;;;10.30;2.95;;;;;;;;;;4944500;28;20054;-70
2023/09/08 07:37:52;;;;;;;8.52;2.85;;;;;;;;;;4950465;28;20137;-69
2023/09/08 07:40:18;;;;;;;9.38;2.75;;;;;;;;;;4941281;28;20022;-70
2023/09/08 07:42:44;;;;;;;8.65;2.60;;;;;;;;;;4944111;28;20034;-70
2023/09/08 07:45:10;;;;;;;8.73;2.60;;;;;;;;;;4943747;28;20171;-70
2023/09/08 07:47:38;;;;;;;7.22;2.40;;;;;;;;;;4944154;28;20039;-69
2023/09/08 07:50:18;;;;;;;8.90;2.60;;;;;;;;;;4944732;28;20042;-70
2023/09/08 07:52:44;;;;;;;7.70;2.20;;;;;;;;;;4939977;28;20666;-70
2023/09/08 07:55:10;;;;;;;9.95;2.63;;;;;;;;;;4942512;28;20046;-69
2023/09/08 07:57:36;;;;;;;7.32;2.30;;;;;;;;;;4942450;28;20026;-72
2023/09/08 08:00:03;;;;;;;11.07;2.60;;;;;;;;;;4941263;28;20042;-70
2023/09/08 08:02:31;;;;;;;7.70;2.53;;;;;;;;;;4941604;28;20109;-69
2023/09/08 08:04:57;;;;;;;9.75;2.78;;;;;;;;;;4946414;28;20031;-71
2023/09/08 08:07:23;;;;;;;13.77;2.80;;;;;;;;;;4940185;28;20034;-72
2023/09/08 08:09:49;;;;;;;7.15;2.20;;;;;;;;;;4946627;28;20023;-72
2023/09/08 08:12:15;;;;;;;6.35;2.10;;;;;;;;;;4944618;28;20038;-72
2023/09/08 08:14:41;;;;;;;6.32;2.10;;;;;;;;;;4948242;28;20676;-72
2023/09/08 08:17:08;;;;;;;8.55;2.55;;;;;;;;;;4942759;28;20118;-71
2023/09/08 08:19:34;;;;;;;9.00;2.88;;;;;;;;;;4947765;28;20030;-71
2023/09/08 08:22:00;;;;;;;8.80;2.55;;;;;;;;;;4947409;28;20097;-71
2023/09/08 08:24:26;;;;;;;11.73;3.22;;;;;;;;;;4945737;28;20057;-72
2023/09/08 08:26:52;;;;;;;7.53;2.63;;;;;;;;;;4945712;28;20077;-71
2023/09/08 08:29:18;;;;;;;7.93;2.58;;;;;;;;;;4944332;28;20049;-72
2023/09/08 08:31:45;;;;;;;6.53;2.70;;;;;;;;;;4949666;28;20023;-71
2023/09/08 08:34:11;;;;;;;7.65;2.58;;;;;;;;;;4943403;28;20433;-72
2023/09/08 08:36:37;;;;;;;7.72;2.33;;;;;;;;;;4948441;28;20023;-70
2023/09/08 08:39:05;;;;;;;9.60;2.83;;;;;;;;;;4947890;28;20464;-71
2023/09/08 08:41:34;;;;;;;8.27;2.83;;;;;;;;;;4943311;28;20062;-70
2023/09/08 08:44:00;;;;;;;7.97;2.67;;;;;;;;;;4950232;28;20042;-72
2023/09/08 08:46:27;;;;;;;10.75;3.10;;;;;;;;;;4944481;28;20215;-72
2023/09/08 08:48:54;;;;;;;8.80;2.90;;;;;;;;;;4952080;28;20046;-70
2023/09/08 08:51:23;;;;;;;6.35;2.20;;;;;;;;;;4946327;28;20034;-70
2023/09/08 08:53:49;;;;;;;7.82;2.70;;;;;;;;;;4950063;28;20594;-70
2023/09/08 08:56:18;;;;;;;7.63;2.75;;;;;;;;;;4947624;28;20039;-72
2023/09/08 08:58:45;;;;;;;9.30;2.58;;;;;;;;;;4950898;28;20120;-70
2023/09/08 09:01:12;;;;;;;7.05;2.40;;;;;;;;;;4951171;28;20026;-70
2023/09/08 09:03:40;;;;;;;7.38;2.40;;;;;;;;;;4951110;28;20417;-70
2023/09/08 09:06:06;;;;;;;11.90;2.50;;;;;;;;;;4950458;28;20511;-70
2023/09/08 09:08:33;;;;;;;7.47;2.45;;;;;;;;;;4950367;28;20035;-71
2023/09/08 09:10:59;;;;;;;6.22;1.98;;;;;;;;;;4948519;28;20055;-71
2023/09/08 09:13:25;;;;;;;8.60;2.63;;;;;;;;;;4949761;28;20061;-71
2023/09/08 09:15:51;;;;;;;8.57;2.30;;;;;;;;;;4949789;28;20031;-71
2023/09/08 09:18:18;;;;;;;6.38;2.25;;;;;;;;;;4947403;28;20042;-71
2023/09/08 09:20:54;;;;;;;9.18;2.50;;;;;;;;;;4946470;28;20034;-71
2023/09/08 09:23:29;;;;;;;9.77;2.80;;;;;;;;;;4945945;28;20130;-70
2023/09/08 09:25:56;;;;;;;6.43;2.33;;;;;;;;;;4947565;28;20043;-70
2023/09/08 09:28:22;;;;;;;7.18;2.50;;;;;;;;;;4946385;28;20038;-70
2023/09/08 09:30:49;;;;;;;7.25;2.50;;;;;;;;;;4947595;28;20031;-70
2023/09/08 09:33:16;;;;;;;8.40;2.30;;;;;;;;;;4946753;28;20259;-71
2023/09/08 09:35:45;;;;;;;9.00;2.78;;;;;;;;;;4946242;28;20037;-70
2023/09/08 09:38:11;;;;;;;7.43;2.30;;;;;;;;;;4946140;28;20035;-70
2023/09/08 09:40:38;;;;;;;8.30;2.58;;;;;;;;;;4944382;28;20043;-70
2023/09/08 09:43:05;;;;;;;6.93;2.42;;;;;;;;;;4945991;28;20047;-70
2023/09/08 09:45:32;;;;;;;7.40;2.20;;;;;;;;;;4944387;28;20295;-71
2023/09/08 09:47:58;;;;;;;7.45;2.30;;;;;;;;;;4945331;28;20045;-70
2023/09/08 09:50:33;;;;;;;7.93;2.20;;;;;;;;;;4944024;28;20567;-70
2023/09/08 09:53:02;;;;;;;6.82;2.25;;;;;;;;;;4946474;28;20039;-71
2023/09/08 09:55:29;;;;;;;6.90;2.40;;;;;;;;;;4944466;28;20065;-71
2023/09/08 09:57:58;;;;;;;7.65;2.60;;;;;;;;;;4949814;28;20035;-70
2023/09/08 10:00:26;;;;;;;6.93;2.10;;;;;;;;;;4949819;28;20338;-70
2023/09/08 10:02:54;;;;;;;10.13;1.95;;;;;;;;;;4949655;28;20054;-70
2023/09/08 10:05:20;;;;;;;6.88;1.92;;;;;;;;;;4942378;28;20035;-71
2023/09/08 10:07:50;;;;;;;5.93;1.88;;;;;;;;;;4946443;28;20113;-70
2023/09/08 10:10:16;;;;;;;7.93;2.15;;;;;;;;;;4938824;28;20346;-70
2023/09/08 10:12:46;;;;;;;6.72;2.10;;;;;;;;;;4950376;28;20057;-70
2023/09/08 10:15:13;;;;;;;7.90;2.38;;;;;;;;;;4942537;28;20117;-72
2023/09/08 10:17:42;;;;;;;5.90;2.08;;;;;;;;;;4947031;28;20189;-71
2023/09/08 10:20:11;;;;;;;8.25;2.42;;;;;;;;;;4944900;28;20433;-69
2023/09/08 10:22:45;;;;;;;6.07;1.90;;;;;;;;;;4943449;28;20038;-70
2023/09/08 10:25:13;;;;;;;5.80;1.95;;;;;;;;;;4941490;28;20033;-71
2023/09/08 10:27:39;;;;;;;6.10;2.08;;;;;;;;;;4946762;28;20041;-71
2023/09/08 10:30:06;;;;;;;7.00;2.05;;;;;;;;;;4946333;28;20110;-70
2023/09/08 10:32:36;;;;;;;7.53;2.00;;;;;;;;;;4947536;28;20038;-70
2023/09/08 10:35:06;;;;;;;5.57;1.70;;;;;;;;;;4947442;28;20030;-71
2023/09/08 10:37:32;;;;;;;7.50;2.22;;;;;;;;;;4946872;28;20035;-72
2023/09/08 10:40:17;;;;;;;8.40;2.45;;;;;;;;;;4940825;28;20055;-72
2023/09/08 10:42:44;;;;;;;6.60;2.05;;;;;;;;;;4946817;28;20470;-72
2023/09/08 10:45:20;;;;;;;7.07;2.00;;;;;;;;;;4944833;28;20450;-72
2023/09/08 10:47:46;;;;;;;5.65;1.88;;;;;;;;;;4945551;28;20463;-70
2023/09/08 10:50:19;;;;;;;6.65;2.33;;;;;;;;;;4941924;28;20039;-72
2023/09/08 10:52:46;;;;;;;7.82;2.15;;;;;;;;;;4946937;28;20562;-70
2023/09/08 10:55:12;;;;;;;7.63;2.05;;;;;;;;;;4946028;28;20058;-72
2023/09/08 10:57:45;;;;;;;7.22;2.17;;;;;;;;;;4947685;28;20031;-72
2023/09/08 11:00:11;;;;;;;7.55;2.53;;;;;;;;;;4944831;28;20026;-70
2023/09/08 11:02:42;;;;;;;7.15;3.00;;;;;;;;;;4946482;28;20030;-70
2023/09/08 11:05:15;;;;;;;7.63;2.30;;;;;;;;;;4946417;28;20486;-71
2023/09/08 11:07:42;;;;;;;7.22;2.30;;;;;;;;;;4947581;28;20034;-71
2023/09/08 11:10:10;;;;;;;11.65;2.60;;;;;;;;;;4940840;28;20556;-70
2023/09/08 11:12:36;;;;;;;10.25;4.03;;;;;;;;;;4944205;28;20039;-71
2023/09/08 11:15:08;;;;;;;6.30;2.20;;;;;;;;;;4944182;28;20664;-71
2023/09/08 11:17:35;;;;;;;7.97;2.50;;;;;;;;;;4946560;28;20097;-70
2023/09/08 11:20:08;;;;;;;7.75;2.33;;;;;;;;;;4945347;28;20354;-71
2023/09/08 11:22:34;;;;;;;9.85;2.30;;;;;;;;;;4943368;28;20185;-70
2023/09/08 11:25:04;;;;;;;9.13;2.10;;;;;;;;;;4945828;28;20027;-71
2023/09/08 11:27:31;;;;;;;6.43;2.00;;;;;;;;;;4942757;28;20031;-71
2023/09/08 11:29:57;;;;;;;7.95;2.53;;;;;;;;;;4947850;28;20422;-71
2023/09/08 11:32:24;;;;;;;7.45;2.53;;;;;;;;;;4939856;28;20105;-71
2023/09/08 11:34:50;;;;;;;7.28;1.92;;;;;;;;;;4943393;28;20041;-71
2023/09/08 11:37:18;;;;;;;5.38;1.90;;;;;;;;;;4942242;28;20049;-71
2023/09/08 11:39:45;;;;;;;4.85;1.80;;;;;;;;;;4945337;28;20432;-71
2023/09/08 11:42:12;;;;;;;7.13;1.92;;;;;;;;;;4942981;28;20061;-71
2023/09/08 11:44:39;;;;;;;5.35;1.90;;;;;;;;;;4942852;28;20030;-71
2023/09/08 11:47:08;;;;;;;6.25;2.10;;;;;;;;;;4947828;28;20035;-71
2023/09/08 11:49:35;;;;;;;7.88;2.08;;;;;;;;;;4947462;28;20121;-71
2023/09/08 11:52:02;;;;;;;7.07;2.25;;;;;;;;;;4950935;28;20041;-71
2023/09/08 11:54:28;;;;;;;7.68;2.05;;;;;;;;;;4949098;28;20049;-71
2023/09/08 11:56:55;;;;;;;7.65;2.30;;;;;;;;;;4950718;28;20136;-72
2023/09/08 11:59:21;;;;;;;7.03;2.35;;;;;;;;;;4947312;28;20033;-71
2023/09/08 12:01:48;;;;;;;7.25;2.75;;;;;;;;;;4950195;28;20030;-71
2023/09/08 12:04:18;;;;;;;12.50;2.92;;;;;;;;;;4947815;28;20521;-71
2023/09/08 12:06:45;;;;;;;12.52;2.63;;;;;;;;;;4948253;28;20033;-71
2023/09/08 12:09:11;;;;;;;8.48;2.45;;;;;;;;;;4946768;28;20736;-72
2023/09/08 12:11:42;;;;;;;8.57;2.50;;;;;;;;;;4943194;28;20035;-72
2023/09/08 12:14:09;;;;;;;8.90;2.30;;;;;;;;;;4940112;28;20054;-71
2023/09/08 12:16:35;;;;;;;9.48;3.65;;;;;;;;;;4940109;28;20308;-72
2023/09/08 12:19:01;;;;;;;8.43;2.65;;;;;;;;;;4938701;28;20765;-72
2023/09/08 12:21:28;;;;;;;5.80;1.90;;;;;;;;;;4944278;28;20735;-71
2023/09/08 12:23:54;;;;;;;7.65;2.53;;;;;;;;;;4943143;28;20469;-71
2023/09/08 12:26:22;;;;;;;7.45;2.30;;;;;;;;;;4937683;28;20101;-71
2023/09/08 12:28:48;;;;;;;8.45;2.30;;;;;;;;;;4942067;28;20083;-71
2023/09/08 12:31:15;;;;;;;6.50;2.20;;;;;;;;;;4942719;28;20037;-71
2023/09/08 12:33:43;;;;;;;7.75;2.17;;;;;;;;;;4945569;28;20054;-72
2023/09/08 12:36:16;;;;;;;10.35;2.13;;;;;;;;;;4940771;28;20561;-71
2023/09/08 12:38:52;;;;;;;9.70;1.88;;;;;;;;;;4944435;28;20027;-71
2023/09/08 12:41:19;;;;;;;7.32;2.00;;;;;;;;;;4942461;28;20619;-71
2023/09/08 12:43:45;;;;;;;6.13;2.03;;;;;;;;;;4944056;28;21435;-72
2023/09/08 12:46:11;;;;;;;9.35;2.10;;;;;;;;;;4942472;28;20424;-71
2023/09/08 12:48:38;;;;;;;8.80;2.53;;;;;;;;;;4944597;28;20780;-72
2023/09/08 12:51:04;;;;;;;11.00;2.90;;;;;;;;;;4941922;28;20022;-71
2023/09/08 12:53:37;;;;;;;7.60;2.30;;;;;;;;;;4940867;28;20677;-71
2023/09/08 12:56:03;;;;;;;8.68;2.20;;;;;;;;;;4944925;28;20034;-71
2023/09/08 12:58:29;;;;;;;7.00;2.00;;;;;;;;;;4942965;28;20118;-71
2023/09/08 13:00:56;;;;;;;5.32;1.90;;;;;;;;;;4946699;28;20351;-71
2023/09/08 13:03:22;;;;;;;6.22;2.20;;;;;;;;;;4941449;28;20038;-71
2023/09/08 13:05:49;;;;;;;5.97;1.92;;;;;;;;;;4950424;28;20030;-71
2023/09/08 13:08:15;;;;;;;13.73;3.05;;;;;;;;;;4939967;28;20042;-71
2023/09/08 13:10:41;;;;;;;9.63;2.22;;;;;;;;;;4944092;28;20351;-71
2023/09/08 13:13:08;;;;;;;7.05;2.03;;;;;;;;;;4946316;28;20120;-71
2023/09/08 13:15:34;;;;;;;5.97;2.13;;;;;;;;;;4945179;28;20116;-71
2023/09/08 13:18:00;;;;;;;8.07;2.20;;;;;;;;;;4945100;28;20039;-71
2023/09/08 13:20:26;;;;;;;7.22;2.38;;;;;;;;;;4945984;28;20367;-72
2023/09/08 13:22:52;;;;;;;10.38;2.20;;;;;;;;;;4944725;28;20077;-73
2023/09/08 13:25:19;;;;;;;7.03;2.28;;;;;;;;;;4942112;28;20192;-73
2023/09/08 13:27:47;;;;;;;6.25;2.17;;;;;;;;;;4956082;28;20881;-71
2023/09/08 13:30:14;;;;;;;7.32;2.08;;;;;;;;;;4937250;28;20047;-73
2023/09/08 13:32:40;;;;;;;8.45;2.30;;;;;;;;;;4944378;28;20026;-71
2023/09/08 13:35:07;;;;;;;7.95;2.50;;;;;;;;;;4946054;28;20360;-73
2023/09/08 13:37:37;;;;;;;6.30;2.30;;;;;;;;;;4943313;28;20027;-70
2023/09/08 13:40:04;;;;;;;8.30;2.40;;;;;;;;;;4945138;28;20370;-72
2023/09/08 13:42:30;;;;;;;8.35;2.20;;;;;;;;;;4939229;28;20498;-73
2023/09/08 13:44:56;;;;;;;9.52;2.22;;;;;;;;;;4947558;28;20449;-72
2023/09/08 13:47:23;;;;;;;8.00;2.30;;;;;;;;;;4940285;28;20474;-74
2023/09/08 13:49:49;;;;;;;9.65;2.50;;;;;;;;;;4943881;28;20032;-73
2023/09/08 13:52:15;;;;;;;7.10;2.05;;;;;;;;;;4945621;28;20418;-73
2023/09/08 13:54:41;;;;;;;6.13;1.95;;;;;;;;;;4942442;28;20058;-72
2023/09/08 13:57:08;;;;;;;7.38;2.00;;;;;;;;;;4943623;28;20031;-71
2023/09/08 13:59:34;;;;;;;6.70;2.10;;;;;;;;;;4940922;28;20035;-70
2023/09/08 14:02:03;;;;;;;5.88;1.80;;;;;;;;;;4942337;28;20034;-71
2023/09/08 14:04:29;;;;;;;9.63;2.20;;;;;;;;;;4942090;28;20251;-71
2023/09/08 14:06:55;;;;;;;7.40;2.03;;;;;;;;;;4948341;28;20042;-71
2023/09/08 14:09:21;;;;;;;6.90;2.00;;;;;;;;;;4938496;28;20058;-71
2023/09/08 14:11:47;;;;;;;11.25;2.53;;;;;;;;;;4942884;28;20291;-71
2023/09/08 14:14:13;;;;;;;8.13;2.70;;;;;;;;;;4940614;28;20034;-71
2023/09/08 14:16:40;;;;;;;7.05;2.53;;;;;;;;;;4942348;28;20669;-72
2023/09/08 14:19:06;;;;;;;7.47;2.53;;;;;;;;;;4948071;28;20116;-71
2023/09/08 14:21:32;;;;;;;9.20;2.42;;;;;;;;;;4939073;28;20126;-71
2023/09/08 14:23:58;;;;;;;7.68;2.20;;;;;;;;;;4943175;28;20330;-71
2023/09/08 14:26:25;;;;;;;6.18;2.42;;;;;;;;;;4937766;28;20351;-71
2023/09/08 14:28:53;;;;;;;9.48;2.58;;;;;;;;;;4939870;28;20538;-71
2023/09/08 14:31:19;;;;;;;7.70;2.22;;;;;;;;;;4933906;28;20037;-71
2023/09/08 14:33:45;;;;;;;11.25;2.50;;;;;;;;;;4939800;28;20498;-71
2023/09/08 14:36:11;;;;;;;8.45;2.40;;;;;;;;;;4940790;28;20813;-71
2023/09/08 14:38:38;;;;;;;8.60;2.22;;;;;;;;;;4934468;28;20271;-72